Time;durP1;ratioP1;P1;durP2;ratioP2;P2;SDS_P1;SDS_P2;PMS_P1;PMS_P2;Temp;Humidity;BMP_temperature;BMP_pressure;BME280_temperature;BME280_humidity;BME280_pressure;Samples;Min_cycle;Max_cycle;Signal;HPM_P1;HPM_P2
2023/05/14 08:06:27;;;;;;;17.80;13.32;;;;;;;14.49;100.00;101656.38;5053605;27;20996;-69
2023/05/14 08:08:52;;;;;;;15.48;13.70;;;;;;;14.61;100.00;101660.00;5069638;28;20036;-70
2023/05/14 08:11:17;;;;;;;19.08;13.77;;;;;;;14.72;100.00;101666.56;5067280;28;20039;-70
2023/05/14 08:13:43;;;;;;;16.33;14.23;;;;;;;14.71;100.00;101664.88;5067071;28;20036;-70
2023/05/14 08:16:08;;;;;;;20.75;13.90;;;;;;;14.79;100.00;101661.81;5068236;28;20024;-72
2023/05/14 08:18:33;;;;;;;16.23;12.73;;;;;;;14.91;100.00;101653.66;5063301;28;20562;-71
2023/05/14 08:20:59;;;;;;;20.25;13.63;;;;;;;15.02;100.00;101658.31;5054140;28;20048;-71
2023/05/14 08:23:25;;;;;;;17.05;13.82;;;;;;;15.06;100.00;101659.50;5057041;28;20112;-71
2023/05/14 08:25:50;;;;;;;16.67;13.27;;;;;;;15.12;100.00;101665.09;5052168;28;20463;-71
2023/05/14 08:28:15;;;;;;;17.35;13.02;;;;;;;15.13;100.00;101661.31;5067066;28;20035;-70
2023/05/14 08:30:41;;;;;;;15.75;13.18;;;;;;;15.03;100.00;101664.59;5064043;28;20112;-71
2023/05/14 08:33:06;;;;;;;18.33;13.20;;;;;;;15.12;100.00;101662.34;5060513;28;20052;-71
2023/05/14 08:35:31;;;;;;;16.17;13.13;;;;;;;15.22;100.00;101659.88;5060727;28;20495;-72
2023/05/14 08:37:57;;;;;;;15.30;12.30;;;;;;;15.28;100.00;101658.94;5067352;28;20032;-71
2023/05/14 08:40:22;;;;;;;15.52;12.65;;;;;;;15.32;100.00;101649.19;5062778;28;20036;-70
2023/05/14 08:42:49;;;;;;;16.45;13.20;;;;;;;15.35;100.00;101653.34;5066074;28;20072;-71
2023/05/14 08:45:19;;;;;;;19.92;13.07;;;;;;;15.39;100.00;101649.91;5065326;28;20071;-71
2023/05/14 08:47:49;;;;;;;18.70;12.82;;;;;;;15.54;100.00;101641.25;5066395;28;20037;-71
2023/05/14 08:50:15;;;;;;;15.23;12.50;;;;;;;15.65;100.00;101647.75;5061092;28;20037;-70
2023/05/14 08:52:40;;;;;;;14.10;12.60;;;;;;;15.83;100.00;101643.25;5046274;28;20087;-70
2023/05/14 08:55:07;;;;;;;15.27;12.00;;;;;;;15.76;100.00;101633.28;5047038;28;20033;-71
2023/05/14 08:57:33;;;;;;;16.83;12.98;;;;;;;15.80;100.00;101638.28;5034371;28;20059;-71
2023/05/14 08:59:59;;;;;;;17.83;12.30;;;;;;;15.84;100.00;101644.91;5047584;28;20036;-71
2023/05/14 09:02:29;;;;;;;15.38;11.30;;;;;;;15.94;100.00;101635.03;5066054;28;20428;-70
2023/05/14 09:04:57;;;;;;;14.20;11.13;;;;;;;16.01;100.00;101628.63;5060739;28;20045;-75
2023/05/14 09:07:23;;;;;;;14.93;10.98;;;;;;;16.18;100.00;101636.84;5065794;28;20032;-71
2023/05/14 09:09:49;;;;;;;12.68;10.20;;;;;;;16.35;98.34;101628.69;5066536;28;20032;-72
2023/05/14 09:12:15;;;;;;;13.10;10.38;;;;;;;16.42;88.20;101630.19;5066582;28;20039;-72
2023/05/14 09:14:41;;;;;;;13.43;10.23;;;;;;;16.56;85.72;101619.81;5062583;28;20029;-71
2023/05/14 09:17:07;;;;;;;11.75;10.25;;;;;;;16.64;85.73;101622.13;5047931;28;20037;-71
2023/05/14 09:19:32;;;;;;;14.95;9.60;;;;;;;16.74;81.43;101617.91;5050452;28;20029;-72
2023/05/14 09:21:58;;;;;;;11.52;9.25;;;;;;;16.95;79.94;101621.84;5035345;28;20021;-71
2023/05/14 09:24:28;;;;;;;16.13;9.77;;;;;;;16.97;77.17;101620.53;5042220;28;20060;-71
2023/05/14 09:26:56;;;;;;;17.55;11.13;;;;;;;17.04;88.23;101623.06;5044684;28;20116;-72
2023/05/14 09:29:25;;;;;;;14.35;11.00;;;;;;;16.99;88.35;101612.06;5034679;28;20060;-71
2023/05/14 09:31:51;;;;;;;13.02;10.30;;;;;;;17.08;84.68;101617.97;5046961;28;20124;-72
2023/05/14 09:34:28;;;;;;;15.10;9.35;;;;;;;17.14;78.61;101612.31;5053552;28;20107;-70
2023/05/14 09:36:59;;;;;;;14.00;9.32;;;;;;;17.21;80.17;101608.56;5038659;28;20029;-72
2023/05/14 09:39:25;;;;;;;14.57;8.27;;;;;;;17.30;77.44;101607.91;5054111;28;20041;-71
2023/05/14 09:41:51;;;;;;;15.27;9.10;;;;;;;17.32;79.89;101610.38;5049292;28;20087;-72
2023/05/14 09:44:17;;;;;;;12.95;8.80;;;;;;;17.30;73.60;101609.78;5034190;28;20029;-70
2023/05/14 09:46:44;;;;;;;17.48;10.50;;;;;;;17.26;78.21;101609.47;5047505;28;20037;-73
2023/05/14 09:49:09;;;;;;;14.48;8.80;;;;;;;17.31;73.81;101609.53;5036869;28;20029;-71
2023/05/14 09:51:36;;;;;;;12.75;9.23;;;;;;;17.40;83.84;101600.91;5037997;28;20032;-70
2023/05/14 09:54:03;;;;;;;12.35;8.30;;;;;;;17.44;71.49;101611.09;5041884;28;20087;-71
2023/05/14 09:56:29;;;;;;;10.25;7.47;;;;;;;17.47;69.63;101607.03;5047177;28;20141;-69
2023/05/14 09:58:54;;;;;;;12.82;7.97;;;;;;;17.53;69.08;101612.31;5054006;28;20447;-71
2023/05/14 10:01:21;;;;;;;14.23;8.50;;;;;;;17.46;70.67;101600.72;5046172;28;20086;-70
2023/05/14 10:03:47;;;;;;;11.27;7.65;;;;;;;17.55;68.78;101603.84;5045677;28;20051;-74
2023/05/14 10:06:15;;;;;;;13.07;8.63;;;;;;;17.64;74.56;101594.09;5043477;28;20045;-71
2023/05/14 10:08:43;;;;;;;19.20;8.57;;;;;;;17.68;71.75;101588.97;5038548;28;20104;-71
2023/05/14 10:11:24;;;;;;;14.73;8.77;;;;;;;17.79;74.59;101604.41;5054093;28;20037;-71
2023/05/14 10:14:10;;;;;;;13.95;7.95;;;;;;;17.81;72.67;101587.75;5054027;28;20476;-71
2023/05/14 10:16:57;;;;;;;9.07;7.40;;;;;;;17.90;73.67;101594.44;5052863;28;20020;-71
2023/05/14 10:19:24;;;;;;;18.30;9.25;;;;;;;17.93;72.36;101598.59;5053971;28;20028;-70
2023/05/14 10:21:55;;;;;;;11.32;8.05;;;;;;;17.91;70.91;101589.81;5053187;28;20511;-71
2023/05/14 10:24:21;;;;;;;12.75;8.43;;;;;;;18.02;73.42;101583.34;5054067;28;20037;-71
2023/05/14 10:26:46;;;;;;;12.73;8.00;;;;;;;18.08;71.46;101590.53;5053308;28;20060;-76
2023/05/14 10:29:12;;;;;;;16.23;8.30;;;;;;;18.21;72.43;101581.09;5034870;28;20044;-70
2023/05/14 10:31:50;;;;;;;12.32;6.82;;;;;;;18.23;68.35;101578.91;5053604;28;20670;-72
2023/05/14 10:34:37;;;;;;;11.50;5.95;;;;;;;18.36;65.66;101578.50;5053017;28;20029;-73
2023/05/14 10:37:12;;;;;;;10.23;6.20;;;;;;;18.46;61.60;101580.50;5047443;28;20033;-71
2023/05/14 10:39:52;;;;;;;9.27;5.70;;;;;;;18.52;62.49;101587.69;5053558;28;20102;-72
2023/05/14 10:42:21;;;;;;;11.30;6.07;;;;;;;18.62;61.81;101583.41;5052087;28;20472;-70
2023/05/14 10:44:57;;;;;;;10.07;6.97;;;;;;;18.65;62.05;101582.88;5044849;28;20449;-71
2023/05/14 10:47:24;;;;;;;9.27;6.25;;;;;;;18.72;62.42;101581.56;5037377;28;20044;-71
2023/05/14 10:49:53;;;;;;;10.85;6.63;;;;;;;18.75;61.67;101575.56;5052365;28;20025;-70
2023/05/14 10:52:19;;;;;;;12.35;6.95;;;;;;;18.73;61.37;101571.41;5055641;28;20028;-70
2023/05/14 10:54:48;;;;;;;14.88;7.45;;;;;;;18.84;65.13;101572.31;5066827;28;20027;-70
2023/05/14 10:57:14;;;;;;;13.38;7.93;;;;;;;18.93;67.08;101559.78;5052888;28;20052;-70
2023/05/14 10:59:42;;;;;;;9.45;5.65;;;;;;;18.91;57.66;101565.53;5049140;28;20064;-70
2023/05/14 11:02:28;;;;;;;9.55;6.50;;;;;;;19.01;60.70;101563.94;5058289;28;20090;-72
2023/05/14 11:05:03;;;;;;;11.30;6.30;;;;;;;19.03;58.53;101564.53;5032843;28;20053;-73
2023/05/14 11:07:29;;;;;;;9.25;6.03;;;;;;;19.11;57.16;101564.84;5033454;28;20040;-71
2023/05/14 11:10:05;;;;;;;8.93;6.40;;;;;;;19.13;56.91;101570.09;5031464;28;20037;-71
2023/05/14 11:12:36;;;;;;;9.38;5.45;;;;;;;19.07;56.81;101555.50;5042990;28;20478;-71
2023/05/14 11:15:06;;;;;;;7.90;6.20;;;;;;;19.10;56.37;101554.97;5052913;28;20037;-72
2023/05/14 11:17:33;;;;;;;6.20;5.47;;;;;;;19.21;55.49;101555.03;5048281;28;20021;-71
2023/05/14 11:19:59;;;;;;;11.23;6.65;;;;;;;19.20;56.67;101556.94;5052506;28;20078;-71
2023/05/14 11:22:24;;;;;;;9.55;6.35;;;;;;;19.40;61.40;101545.25;5050236;28;20029;-78
2023/05/14 11:24:50;;;;;;;8.18;6.10;;;;;;;19.50;56.56;101549.94;5051304;28;20036;-72
2023/05/14 11:27:20;;;;;;;9.20;6.50;;;;;;;19.54;55.70;101542.84;5052786;28;20028;-73
2023/05/14 11:29:46;;;;;;;11.83;6.70;;;;;;;19.45;55.39;101542.53;5052935;28;20498;-73
2023/05/14 11:32:13;;;;;;;10.23;6.30;;;;;;;19.56;59.33;101528.84;5052625;28;20104;-75
2023/05/14 11:34:39;;;;;;;8.77;6.57;;;;;;;19.64;57.36;101540.13;5052772;28;20107;-77
2023/05/14 11:37:06;;;;;;;11.93;6.15;;;;;;;19.81;56.61;101539.13;5050604;28;20025;-72
2023/05/14 11:39:32;;;;;;;10.75;6.35;;;;;;;19.83;56.20;101531.44;5044637;28;20473;-70
2023/05/14 11:42:18;;;;;;;14.02;6.28;;;;;;;19.94;57.16;101538.59;5032555;28;20041;-70
2023/05/14 11:44:50;;;;;;;10.05;6.40;;;;;;;20.01;57.90;101532.84;5032427;28;20038;-70
2023/05/14 11:47:18;;;;;;;11.40;5.75;;;;;;;20.22;57.43;101532.88;5032510;28;20192;-73
2023/05/14 11:49:43;;;;;;;13.40;6.10;;;;;;;20.24;55.87;101520.50;5031442;28;20037;-71
2023/05/14 11:52:11;;;;;;;7.80;5.03;;;;;;;20.29;54.21;101517.75;5049339;28;20056;-70
2023/05/14 11:54:36;;;;;;;7.95;4.97;;;;;;;20.34;54.38;101514.19;5033155;28;20060;-71
2023/05/14 11:57:08;;;;;;;8.77;5.50;;;;;;;20.41;53.41;101519.41;5032421;28;20060;-71
2023/05/14 11:59:34;;;;;;;7.70;5.50;;;;;;;20.49;51.93;101519.69;5032534;28;20083;-71
2023/05/14 12:02:02;;;;;;;6.95;5.70;;;;;;;20.40;52.24;101520.53;5051958;28;20475;-71
2023/05/14 12:04:28;;;;;;;9.35;5.22;;;;;;;20.59;52.21;101516.09;5072433;28;20036;-71
2023/05/14 12:06:53;;;;;;;12.23;5.30;;;;;;;20.67;51.21;101515.56;5072474;28;20093;-70
2023/05/14 12:09:20;;;;;;;6.50;4.75;;;;;;;20.69;51.08;101504.28;5050185;28;20461;-75
2023/05/14 12:11:47;;;;;;;7.13;4.63;;;;;;;20.79;50.18;101509.78;5032488;28;20033;-71
2023/05/14 12:14:17;;;;;;;8.10;4.00;;;;;;;20.77;48.10;101508.41;5031436;28;20037;-75
2023/05/14 12:16:44;;;;;;;6.03;4.40;;;;;;;20.75;46.73;101505.94;5052630;28;20107;-71
2023/05/14 12:19:10;;;;;;;6.63;4.75;;;;;;;20.88;50.76;101499.03;5052079;28;20025;-71
2023/05/14 12:21:36;;;;;;;8.82;4.38;;;;;;;21.10;51.41;101503.38;5052313;28;20071;-74
2023/05/14 12:24:01;;;;;;;11.00;4.75;;;;;;;21.29;50.71;101496.16;5049920;28;20057;-73
2023/05/14 12:26:27;;;;;;;7.43;4.45;;;;;;;21.34;47.30;101498.06;5051911;28;20083;-72
2023/05/14 12:28:58;;;;;;;19.55;4.90;;;;;;;21.27;48.16;101492.84;5040597;28;20065;-72
2023/05/14 12:31:27;;;;;;;;;;;;;;;21.29;51.37;101490.63;5036876;28;20480;-75
2023/05/14 12:33:52;;;;;;;7.00;4.28;;;;;;;20.94;48.08;101484.16;5043199;28;19909;-74
2023/05/14 12:36:17;;;;;;;8.55;4.00;;;;;;;20.78;47.93;101482.56;5041735;28;20045;-72
2023/05/14 12:38:43;;;;;;;10.65;3.80;;;;;;;20.90;47.14;101477.56;5045149;28;20055;-71
2023/05/14 12:41:08;;;;;;;8.60;3.90;;;;;;;21.05;46.97;101480.25;5051453;28;20033;-72
2023/05/14 12:43:33;;;;;;;6.90;3.80;;;;;;;21.32;45.15;101476.31;5051606;28;20421;-72
2023/05/14 12:45:59;;;;;;;4.82;3.22;;;;;;;21.56;45.18;101468.22;5041990;28;20035;-70
2023/05/14 12:48:24;;;;;;;4.75;3.15;;;;;;;21.72;41.75;101476.41;5043432;28;20086;-72
2023/05/14 12:50:50;;;;;;;5.88;2.67;;;;;;;21.77;38.35;101473.63;5050404;28;20034;-70
2023/05/14 12:53:15;;;;;;;9.25;2.70;;;;;;;21.63;35.74;101467.91;5055402;28;20718;-73
2023/05/14 12:55:41;;;;;;;5.07;2.83;;;;;;;21.66;37.51;101467.34;5055175;28;20048;-71
2023/05/14 12:58:06;;;;;;;6.65;2.78;;;;;;;21.71;34.85;101453.53;5039819;28;20041;-73
2023/05/14 13:00:31;;;;;;;6.30;2.55;;;;;;;21.74;35.48;101452.97;5050492;28;20044;-71
2023/05/14 13:02:56;;;;;;;4.15;2.60;;;;;;;21.89;39.06;101456.72;5059442;28;20057;-78
2023/05/14 13:05:22;;;;;;;5.00;3.10;;;;;;;21.95;40.07;101453.66;5052689;28;20059;-75
2023/05/14 13:07:47;;;;;;;5.25;2.55;;;;;;;21.93;37.35;101455.03;5054491;28;20041;-75
2023/05/14 13:10:13;;;;;;;5.68;2.60;;;;;;;21.93;38.34;101449.53;5051595;28;20021;-75
2023/05/14 13:12:38;;;;;;;5.70;2.67;;;;;;;21.94;36.55;101451.19;5050026;28;20040;-76
2023/05/14 13:15:04;;;;;;;6.95;2.95;;;;;;;22.00;37.29;101444.53;5034029;28;20021;-77
2023/05/14 13:17:29;;;;;;;5.95;2.58;;;;;;;21.89;36.79;101445.69;5035759;28;20380;-78
2023/05/14 13:19:54;;;;;;;4.28;2.70;;;;;;;21.75;35.80;101443.59;5034105;28;20029;-74
2023/05/14 13:22:20;;;;;;;6.78;3.80;;;;;;;21.61;42.98;101442.59;5045692;28;20112;-74
2023/05/14 13:24:45;;;;;;;8.32;4.20;;;;;;;21.51;44.67;101443.47;5055150;28;20458;-78
2023/05/14 13:27:10;;;;;;;7.90;4.10;;;;;;;21.53;46.20;101440.41;5053311;28;20036;-71
2023/05/14 13:29:36;;;;;;;7.38;3.80;;;;;;;21.73;45.08;101434.78;5055229;28;20112;-76
2023/05/14 13:32:01;;;;;;;5.65;3.50;;;;;;;21.85;43.87;101431.69;5055110;28;20357;-73
2023/05/14 13:34:26;;;;;;;6.13;3.20;;;;;;;21.82;41.92;101439.72;5049192;28;20038;-77
2023/05/14 13:36:52;;;;;;;7.03;3.60;;;;;;;21.91;43.46;101438.78;5054542;28;20383;-78
2023/05/14 13:39:21;;;;;;;9.05;3.70;;;;;;;21.90;41.42;101433.56;5043357;28;20468;-74
2023/05/14 13:41:46;;;;;;;8.02;3.20;;;;;;;21.92;41.94;101420.31;5043957;28;20431;-71
2023/05/14 13:44:12;;;;;;;6.28;3.90;;;;;;;21.84;43.68;101419.00;5053675;28;20029;-71
2023/05/14 13:46:37;;;;;;;6.57;4.13;;;;;;;21.82;44.60;101423.19;5051276;28;20052;-72
2023/05/14 13:49:02;;;;;;;6.43;3.58;;;;;;;21.97;44.78;101425.81;5053796;28;20035;-73
2023/05/14 13:51:28;;;;;;;6.30;3.70;;;;;;;21.99;43.74;101428.28;5054633;28;20490;-81
2023/05/14 13:53:53;;;;;;;7.75;4.25;;;;;;;22.01;43.17;101426.03;5047395;28;20029;-73
2023/05/14 13:56:18;;;;;;;8.52;3.53;;;;;;;22.04;44.64;101425.47;5053088;28;20031;-78
2023/05/14 13:58:44;;;;;;;5.63;3.47;;;;;;;22.03;44.14;101421.91;5053680;28;20029;-80
2023/05/14 14:01:09;;;;;;;4.32;3.22;;;;;;;22.05;43.37;101427.13;5051486;28;20021;-74
2023/05/14 14:03:34;;;;;;;9.65;4.15;;;;;;;21.97;43.20;101420.28;5055073;28;20102;-75
2023/05/14 14:06:00;;;;;;;6.45;3.42;;;;;;;21.86;43.07;101421.47;5042262;28;20395;-76
2023/05/14 14:08:25;;;;;;;3.80;3.35;;;;;;;21.71;42.23;101409.47;5052192;28;20606;-75
2023/05/14 14:10:51;;;;;;;6.95;3.70;;;;;;;21.81;43.92;101407.75;5056034;28;20095;-76
2023/05/14 14:13:17;;;;;;;5.63;3.65;;;;;;;21.72;42.11;101400.09;5041240;28;20025;-76
2023/05/14 14:15:42;;;;;;;6.45;3.35;;;;;;;21.76;42.54;101398.41;5045552;28;20127;-76
2023/05/14 14:18:07;;;;;;;6.75;3.50;;;;;;;21.73;42.75;101401.75;5054108;28;20033;-74
2023/05/14 14:20:33;;;;;;;6.88;3.20;;;;;;;21.80;44.34;101395.06;5054006;28;20115;-74
2023/05/14 14:22:58;;;;;;;6.60;3.40;;;;;;;21.82;45.25;101395.63;5052771;28;20033;-75
2023/05/14 14:25:23;;;;;;;7.15;3.65;;;;;;;21.75;45.01;101396.75;5052971;28;20028;-77
2023/05/14 14:27:49;;;;;;;12.57;3.97;;;;;;;21.70;45.71;101387.72;5054441;28;20029;-73
2023/05/14 14:30:15;;;;;;;10.20;3.70;;;;;;;21.71;46.58;101394.84;5044699;28;20043;-80
2023/05/14 14:32:43;;;;;;;9.90;3.70;;;;;;;21.60;45.56;101388.63;5046400;28;20029;-72
2023/05/14 14:35:13;;;;;;;10.00;3.20;;;;;;;21.56;45.36;101395.81;5052387;28;20032;-77
2023/05/14 14:37:38;;;;;;;6.63;3.33;;;;;;;21.61;45.84;101393.03;5051527;28;20075;-75
2023/05/14 14:40:06;;;;;;;10.48;3.15;;;;;;;21.59;44.65;101389.75;5052737;28;20025;-74
2023/05/14 14:42:32;;;;;;;8.65;3.35;;;;;;;21.58;45.86;101388.09;5040792;28;20033;-74
2023/05/14 14:44:58;;;;;;;6.78;3.38;;;;;;;21.54;47.20;101387.00;5050489;28;20667;-74
2023/05/14 14:47:23;;;;;;;10.25;3.70;;;;;;;21.45;46.07;101386.75;5044238;28;20021;-74
2023/05/14 14:49:48;;;;;;;7.88;3.38;;;;;;;21.38;46.06;101384.34;5053419;28;20081;-74
2023/05/14 14:52:14;;;;;;;9.63;3.65;;;;;;;21.29;46.65;101391.53;5052249;28;20445;-74
2023/05/14 14:54:39;;;;;;;5.75;3.45;;;;;;;21.27;47.78;101385.47;5042792;28;20044;-74
2023/05/14 14:57:04;;;;;;;9.57;4.47;;;;;;;21.22;47.45;101391.03;5039867;28;20193;-73
2023/05/14 14:59:30;;;;;;;8.43;3.42;;;;;;;21.18;47.24;101392.69;5051838;28;20032;-73
2023/05/14 15:01:55;;;;;;;9.48;3.80;;;;;;;21.08;48.76;101385.34;5055785;28;20041;-74
2023/05/14 15:04:20;;;;;;;9.05;3.50;;;;;;;21.02;48.46;101386.47;5052926;28;20033;-75
2023/05/14 15:06:46;;;;;;;13.38;4.10;;;;;;;20.94;48.35;101385.13;5052768;28;20499;-74
2023/05/14 15:09:11;;;;;;;6.80;3.50;;;;;;;20.92;48.27;101381.00;5048013;28;20138;-72
2023/05/14 15:11:36;;;;;;;8.18;3.67;;;;;;;20.91;48.28;101395.84;5050822;28;20067;-73
2023/05/14 15:14:01;;;;;;;9.65;4.20;;;;;;;20.88;48.59;101378.81;5052690;28;20468;-71
2023/05/14 15:16:27;;;;;;;10.05;4.07;;;;;;;20.84;46.97;101371.41;5037839;28;20037;-71
2023/05/14 15:18:52;;;;;;;9.65;3.55;;;;;;;20.83;46.74;101376.06;5037803;28;20447;-71
2023/05/14 15:21:17;;;;;;;6.25;3.60;;;;;;;20.85;47.18;101371.13;5036441;28;20432;-70
2023/05/14 15:23:43;;;;;;;7.72;3.65;;;;;;;20.80;46.12;101370.31;5047738;28;20028;-70
2023/05/14 15:26:08;;;;;;;9.45;3.10;;;;;;;20.77;43.88;101370.88;5040404;28;20029;-70
2023/05/14 15:28:33;;;;;;;9.88;3.25;;;;;;;20.74;43.78;101369.50;5052721;28;20033;-69
2023/05/14 15:30:59;;;;;;;9.40;3.63;;;;;;;20.78;45.98;101367.03;5052533;28;20383;-70
2023/05/14 15:33:24;;;;;;;6.43;3.20;;;;;;;20.77;45.30;101368.13;5051809;28;20035;-69
2023/05/14 15:35:50;;;;;;;6.63;3.08;;;;;;;20.80;44.64;101362.06;5051806;28;20029;-71
2023/05/14 15:38:15;;;;;;;6.03;2.95;;;;;;;20.78;44.32;101367.03;5049410;28;20037;-71
2023/05/14 15:40:40;;;;;;;7.28;3.22;;;;;;;20.80;43.74;101362.06;5037344;28;20057;-70
2023/05/14 15:43:06;;;;;;;6.78;3.65;;;;;;;20.81;43.87;101358.22;5052760;28;20028;-70
2023/05/14 15:45:32;;;;;;;7.65;3.35;;;;;;;20.84;42.85;101358.47;5044317;28;20029;-69
2023/05/14 15:47:57;;;;;;;8.05;3.10;;;;;;;20.83;43.95;101356.81;5033485;28;20038;-70
2023/05/14 15:50:23;;;;;;;5.53;3.20;;;;;;;20.92;44.94;101361.75;5038526;28;20480;-70
2023/05/14 15:52:48;;;;;;;12.90;3.40;;;;;;;21.06;44.76;101346.25;5046204;28;20056;-70
2023/05/14 15:55:13;;;;;;;9.82;4.57;;;;;;;21.22;43.96;101347.00;5051170;28;20033;-70
2023/05/14 15:57:39;;;;;;;7.18;3.88;;;;;;;21.25;43.27;101347.25;5052501;28;20371;-72
2023/05/14 16:00:10;;;;;;;8.20;3.45;;;;;;;21.28;44.66;101351.34;5046180;28;20036;-77
2023/05/14 16:02:40;;;;;;;8.32;4.20;;;;;;;21.21;44.84;101345.34;5061217;28;20136;-72
